createdAt,value
2022-08-05T00:00:00.431Z,20.73
2022-08-05T00:02:28.767Z,20.06
2022-08-05T00:04:57.493Z,19.56
2022-08-05T00:07:59.357Z,19.29
2022-08-05T00:10:14.400Z,19.86
2022-08-05T00:12:56.178Z,20.38
2022-08-05T00:15:55.698Z,20.76
2022-08-05T00:18:21.799Z,21.01
2022-08-05T00:20:51.438Z,21.20
2022-08-05T00:23:44.846Z,21.17
2022-08-05T00:26:08.126Z,20.45
2022-08-05T00:28:36.019Z,19.78
2022-08-05T00:31:04.809Z,19.23
2022-08-05T00:34:53.627Z,18.98
2022-08-05T00:37:12.692Z,19.62
2022-08-05T00:39:13.737Z,20.18
2022-08-05T00:41:54.920Z,20.49
2022-08-05T00:44:30.537Z,20.67
2022-08-05T00:47:02.176Z,20.81
2022-08-05T00:49:51.059Z,20.94
2022-08-05T00:52:28.396Z,20.84
2022-08-05T00:54:56.836Z,20.10
2022-08-05T00:57:25.451Z,19.46
2022-08-05T00:59:59.718Z,18.92
2022-08-05T01:02:27.543Z,18.71
2022-08-05T01:04:55.356Z,19.25
2022-08-05T01:07:23.414Z,19.78
2022-08-05T01:09:59.719Z,20.10
2022-08-05T01:12:29.668Z,20.29
2022-08-05T01:15:05.177Z,20.42
2022-08-05T01:17:55.355Z,20.57
2022-08-05T01:20:41.423Z,20.51
2022-08-05T01:23:35.115Z,19.75
2022-08-05T01:26:22.035Z,19.00
2022-08-05T01:29:00.527Z,18.47
2022-08-05T01:31:45.132Z,18.31
2022-08-05T01:34:17.791Z,18.95
2022-08-05T01:37:05.513Z,19.49
2022-08-05T01:39:45.816Z,19.77
2022-08-05T01:42:17.909Z,20.01
2022-08-05T01:44:45.830Z,20.17
2022-08-05T01:47:22.531Z,20.29
2022-08-05T01:50:02.226Z,20.37
2022-08-05T01:52:32.597Z,20.27
2022-08-05T01:55:04.626Z,19.55
2022-08-05T01:58:12.247Z,18.80
2022-08-05T02:00:30.617Z,18.23
2022-08-05T02:03:03.499Z,18.05
2022-08-05T02:05:35.863Z,18.63
2022-08-05T02:08:04.779Z,19.16
2022-08-05T02:10:45.765Z,19.47
2022-08-05T02:13:24.072Z,19.78
2022-08-05T02:15:59.016Z,19.98
2022-08-05T02:18:42.021Z,20.14
2022-08-05T02:21:15.401Z,20.09
2022-08-05T02:23:46.941Z,19.33
2022-08-05T02:26:22.351Z,18.58
2022-08-05T02:28:50.306Z,18.01
2022-08-05T02:31:24.697Z,17.79
2022-08-05T02:33:58.072Z,18.37
2022-08-05T02:36:27.571Z,18.96
2022-08-05T02:39:00.467Z,19.40
2022-08-05T02:41:43.189Z,19.68
2022-08-05T02:44:16.793Z,19.91
2022-08-05T02:46:58.780Z,20.07
2022-08-05T02:49:36.223Z,20.02
2022-08-05T02:52:09.366Z,19.24
2022-08-05T02:54:41.671Z,18.48
2022-08-05T02:58:10.222Z,18.08
2022-08-05T03:00:04.352Z,18.61
2022-08-05T03:02:37.009Z,19.09
2022-08-05T03:05:06.152Z,19.42
2022-08-05T03:08:00.881Z,19.61
2022-08-05T03:10:25.048Z,19.79
2022-08-05T03:15:24.355Z,19.85
2022-08-05T03:17:55.880Z,19.10
2022-08-05T03:20:24.545Z,18.39
2022-08-05T03:22:52.880Z,17.92
2022-08-05T03:25:33.564Z,17.76
2022-08-05T03:28:10.965Z,18.46
2022-08-05T03:30:42.279Z,19.11
2022-08-05T03:33:10.365Z,19.69
2022-08-05T03:35:40.875Z,20.21
2022-08-05T03:38:11.152Z,20.49
2022-08-05T03:40:48.498Z,20.14
2022-08-05T03:44:09.829Z,19.77
2022-08-05T03:46:05.120Z,19.57
2022-08-05T03:48:36.801Z,19.46
2022-08-05T03:52:48.982Z,19.36
2022-08-05T03:55:06.918Z,19.26
2022-08-05T03:57:16.417Z,19.22
2022-08-05T03:59:54.864Z,19.51
2022-08-05T04:02:38.562Z,20.53
2022-08-05T04:05:09.862Z,21.49
2022-08-05T04:07:58.241Z,21.80
2022-08-05T04:10:32.174Z,21.37
2022-08-05T04:13:07.019Z,21.02
2022-08-05T04:15:36.316Z,20.89
2022-08-05T04:18:07.309Z,20.93
2022-08-05T04:20:38.497Z,21.03
2022-08-05T04:23:12.610Z,21.16
2022-08-05T04:26:00.379Z,21.38
2022-08-05T04:28:30.802Z,21.70
2022-08-05T04:31:00.819Z,22.02
2022-08-05T04:34:17.510Z,22.37
2022-08-05T04:36:45.306Z,22.78
2022-08-05T04:39:05.301Z,23.24
2022-08-05T04:41:37.874Z,23.66
2022-08-05T04:44:08.915Z,24.19
2022-08-05T04:46:38.838Z,24.78
2022-08-05T04:49:12.157Z,25.44
2022-08-05T04:51:44.069Z,26.28
2022-08-05T04:54:12.381Z,27.17
2022-08-05T04:56:40.324Z,27.96
2022-08-05T04:59:21.466Z,28.66
2022-08-05T05:02:07.352Z,29.46
2022-08-05T05:04:47.750Z,30.26
2022-08-05T05:07:18.245Z,31.01
2022-08-05T05:09:52.286Z,31.64
2022-08-05T05:12:22.241Z,32.07
2022-08-05T05:14:51.311Z,32.53
2022-08-05T05:17:23.793Z,33.05
2022-08-05T05:19:56.606Z,33.60
2022-08-05T05:22:26.356Z,34.21
2022-08-05T05:24:58.443Z,34.79
2022-08-05T05:27:41.652Z,35.33
2022-08-05T05:30:29.466Z,35.95
2022-08-05T05:33:01.259Z,36.55
2022-08-05T05:35:39.525Z,37.09
2022-08-05T05:38:12.751Z,37.57
2022-08-05T05:40:49.453Z,37.99
2022-08-05T05:43:56.623Z,38.47
2022-08-05T05:46:42.464Z,38.89
2022-08-05T05:49:22.583Z,39.20
2022-08-05T05:51:51.515Z,39.45
2022-08-05T05:54:22.137Z,39.73
2022-08-05T05:57:13.449Z,39.88
2022-08-05T05:59:48.765Z,40.00
2022-08-05T06:02:37.362Z,40.13
2022-08-05T06:05:17.224Z,40.26
2022-08-05T06:07:57.985Z,40.50
2022-08-05T06:10:34.578Z,40.72
2022-08-05T06:13:08.266Z,40.91
2022-08-05T06:16:29.865Z,41.06
2022-08-05T06:18:39.452Z,41.35
2022-08-05T06:21:35.909Z,41.61
2022-08-05T06:24:49.122Z,41.65
2022-08-05T06:28:11.644Z,41.62
2022-08-05T06:30:17.683Z,41.82
2022-08-05T06:32:50.628Z,42.05
2022-08-05T06:36:25.935Z,42.36
2022-08-05T06:38:54.923Z,42.85
2022-08-05T06:41:23.763Z,43.00
2022-08-05T06:44:00.222Z,43.13
2022-08-05T06:46:32.327Z,43.23
2022-08-05T06:49:07.558Z,43.37
2022-08-05T06:51:46.052Z,43.71
2022-08-05T06:54:19.782Z,44.00
2022-08-05T06:57:56.824Z,44.03
2022-08-05T07:00:29.693Z,44.06
2022-08-05T07:03:18.583Z,44.07
2022-08-05T07:05:56.588Z,43.98
2022-08-05T07:08:29.131Z,43.67
2022-08-05T07:11:22.108Z,43.31
2022-08-05T07:14:51.248Z,42.82
2022-08-05T07:18:01.973Z,42.50
2022-08-05T07:21:04.742Z,42.45
2022-08-05T07:24:53.558Z,42.50
2022-08-05T07:28:55.541Z,42.79
2022-08-05T07:33:08.939Z,42.77
2022-08-05T07:36:25.385Z,42.83
2022-08-05T07:40:32.940Z,42.51
2022-08-05T07:43:21.143Z,41.91
2022-08-05T07:46:49.612Z,41.90
2022-08-05T07:49:54.909Z,41.83
2022-08-05T07:52:43.398Z,41.80
2022-08-05T07:55:15.776Z,41.92
2022-08-05T07:58:55.095Z,42.01
2022-08-05T08:01:32.294Z,41.74
2022-08-05T08:04:14.710Z,41.53
2022-08-05T08:06:43.974Z,40.98
2022-08-05T08:09:14.144Z,40.49
2022-08-05T08:11:51.293Z,40.27
2022-08-05T08:14:28.599Z,40.05
2022-08-05T08:16:56.698Z,39.82
2022-08-05T08:20:21.205Z,39.33
2022-08-05T08:22:15.888Z,38.80
2022-08-05T08:24:51.874Z,38.31
2022-08-05T08:27:24.172Z,37.99
2022-08-05T08:30:29.976Z,37.69
2022-08-05T08:33:01.049Z,37.17
2022-08-05T08:35:34.952Z,36.65
2022-08-05T08:38:35.968Z,36.18
2022-08-05T08:41:16.908Z,35.79
2022-08-05T08:45:23.433Z,35.46
2022-08-05T08:46:34.505Z,35.13
2022-08-05T08:50:06.048Z,34.96
2022-08-05T08:52:13.640Z,34.87
2022-08-05T08:54:43.552Z,34.89
2022-08-05T08:57:14.169Z,34.75
2022-08-05T08:59:47.201Z,34.64
2022-08-05T09:02:19.171Z,34.57
2022-08-05T09:05:16.270Z,34.35
2022-08-05T09:07:39.776Z,34.15
2022-08-05T09:10:27.085Z,33.88
2022-08-05T09:12:57.013Z,33.57
2022-08-05T09:15:37.033Z,33.34
2022-08-05T09:18:09.406Z,33.15
2022-08-05T09:20:38.408Z,33.18
2022-08-05T09:23:21.660Z,33.26
2022-08-05T09:26:08.601Z,33.23
2022-08-05T09:28:39.699Z,33.19
2022-08-05T09:31:43.562Z,33.06
2022-08-05T09:34:07.070Z,32.94
2022-08-05T09:36:55.910Z,32.91
2022-08-05T09:39:39.495Z,32.95
2022-08-05T09:42:24.469Z,33.02
2022-08-05T09:44:57.382Z,33.10
2022-08-05T09:47:55.290Z,33.12
2022-08-05T09:50:38.896Z,33.11
2022-08-05T09:53:23.160Z,33.14
2022-08-05T09:56:05.016Z,33.12
2022-08-05T09:58:41.916Z,33.11
2022-08-05T10:01:14.658Z,33.12
2022-08-05T10:04:00.135Z,33.12
2022-08-05T10:06:28.521Z,33.10
2022-08-05T10:09:09.616Z,33.17
2022-08-05T10:11:53.489Z,33.26
2022-08-05T10:14:32.142Z,33.26
2022-08-05T10:17:39.723Z,33.31
2022-08-05T10:20:10.993Z,33.40
2022-08-05T10:22:42.888Z,33.42
2022-08-05T10:25:16.715Z,33.34
2022-08-05T10:28:12.739Z,33.27
2022-08-05T10:31:20.981Z,33.27
2022-08-05T10:33:23.562Z,33.32
2022-08-05T10:36:00.029Z,33.31
2022-08-05T10:38:29.314Z,33.41
2022-08-05T10:41:23.602Z,33.41
2022-08-05T10:44:01.960Z,33.20
2022-08-05T10:46:46.071Z,33.07
2022-08-05T10:49:19.254Z,32.94
2022-08-05T10:52:00.701Z,32.67
2022-08-05T10:54:56.737Z,32.51
2022-08-05T10:57:32.212Z,32.54
2022-08-05T11:00:19.730Z,32.70
2022-08-05T11:03:23.300Z,32.87
2022-08-05T11:06:15.493Z,32.99
2022-08-05T11:09:32.272Z,32.93
2022-08-05T11:12:27.195Z,33.06
2022-08-05T11:15:19.150Z,33.19
2022-08-05T11:18:23.710Z,33.29
2022-08-05T11:20:52.729Z,33.32
2022-08-05T11:24:03.182Z,33.28
2022-08-05T11:26:29.288Z,33.26
2022-08-05T11:29:13.275Z,33.30
2022-08-05T11:31:57.148Z,33.39
2022-08-05T11:34:51.887Z,33.43
2022-08-05T11:38:36.740Z,33.42
2022-08-05T11:41:15.486Z,33.43
2022-08-05T11:44:08.271Z,33.45
2022-08-05T11:46:58.697Z,33.50
2022-08-05T11:49:34.031Z,33.52
2022-08-05T11:52:08.376Z,33.58
2022-08-05T11:54:40.458Z,33.44
2022-08-05T11:57:24.829Z,33.30
2022-08-05T11:59:54.475Z,33.31
2022-08-05T12:02:33.195Z,33.34
2022-08-05T12:05:07.385Z,33.44
2022-08-05T12:08:08.073Z,33.55
2022-08-05T12:10:45.015Z,33.67
2022-08-05T12:13:17.078Z,33.70
2022-08-05T12:15:50.224Z,33.75
2022-08-05T12:18:33.142Z,33.84
2022-08-05T12:21:19.030Z,33.96
2022-08-05T12:24:08.541Z,34.08
2022-08-05T12:26:39.412Z,34.14
2022-08-05T12:29:17.864Z,34.17
2022-08-05T12:31:53.109Z,34.21
2022-08-05T12:34:28.531Z,34.29
2022-08-05T12:37:07.735Z,34.40
2022-08-05T12:39:38.978Z,34.51
2022-08-05T12:42:15.295Z,34.56
2022-08-05T12:44:44.789Z,34.62
2022-08-05T12:47:17.123Z,34.50
2022-08-05T12:49:49.340Z,34.43
2022-08-05T12:52:38.551Z,34.44
2022-08-05T12:55:22.458Z,34.43
2022-08-05T12:58:50.061Z,34.35
2022-08-05T13:02:03.686Z,34.18
2022-08-05T13:03:32.346Z,34.14
2022-08-05T13:06:01.817Z,34.18
2022-08-05T13:08:32.808Z,34.20
2022-08-05T13:11:02.135Z,34.19
2022-08-05T13:14:05.050Z,34.23
2022-08-05T13:16:25.306Z,34.32
2022-08-05T13:18:57.905Z,34.40
2022-08-05T13:21:27.709Z,34.51
2022-08-05T13:23:56.642Z,34.58
2022-08-05T13:26:50.602Z,34.64
2022-08-05T13:29:37.499Z,34.70
2022-08-05T13:32:06.290Z,34.79
2022-08-05T13:34:37.978Z,34.89
2022-08-05T13:37:08.886Z,34.95
2022-08-05T13:40:16.812Z,34.92
2022-08-05T13:42:24.962Z,34.78
2022-08-05T13:44:55.312Z,34.64
2022-08-05T13:47:35.769Z,34.50
2022-08-05T13:50:06.874Z,34.31
2022-08-05T13:52:41.768Z,34.20
2022-08-05T13:55:12.323Z,34.12
2022-08-05T13:58:00.381Z,34.04
2022-08-05T14:00:28.388Z,33.91
2022-08-05T14:02:57.329Z,33.92
2022-08-05T14:05:29.742Z,33.94
2022-08-05T14:08:21.403Z,33.90
2022-08-05T14:11:03.227Z,33.89
2022-08-05T14:13:43.933Z,33.95
2022-08-05T14:16:16.935Z,33.97
2022-08-05T14:18:45.310Z,34.00
2022-08-05T14:21:24.065Z,34.04
2022-08-05T14:24:01.628Z,34.11
2022-08-05T14:26:35.818Z,34.19
2022-08-05T14:29:16.205Z,34.22
2022-08-05T14:32:03.493Z,34.26
2022-08-05T14:34:35.292Z,34.35
2022-08-05T14:37:04.816Z,34.43
2022-08-05T14:39:49.301Z,34.52
2022-08-05T14:42:19.467Z,34.49
2022-08-05T14:44:49.627Z,34.41
2022-08-05T14:48:02.767Z,34.27
2022-08-05T14:50:17.722Z,34.18
2022-08-05T14:52:53.471Z,34.09
2022-08-05T14:55:28.602Z,34.06
2022-08-05T14:58:10.925Z,34.02
2022-08-05T15:00:58.477Z,33.98
2022-08-05T15:03:34.124Z,33.80
2022-08-05T15:06:15.391Z,33.50
2022-08-05T15:09:01.484Z,33.34
2022-08-05T15:11:50.930Z,33.32
2022-08-05T15:14:35.773Z,33.32
2022-08-05T15:17:44.553Z,33.38
2022-08-05T15:20:00.017Z,33.40
2022-08-05T15:22:28.717Z,33.39
2022-08-05T15:24:59.295Z,33.38
2022-08-05T15:27:32.105Z,33.32
2022-08-05T15:30:00.570Z,33.29
2022-08-05T15:32:29.022Z,33.23
2022-08-05T15:34:57.391Z,33.20
2022-08-05T15:38:33.752Z,33.19
2022-08-05T15:41:02.881Z,33.17
2022-08-05T15:43:12.867Z,33.20
2022-08-05T15:45:47.898Z,33.20
2022-08-05T15:48:29.032Z,33.15
2022-08-05T15:50:58.331Z,33.11
2022-08-05T15:53:38.476Z,33.13
2022-08-05T15:56:20.328Z,33.19
2022-08-05T15:58:48.735Z,33.25
2022-08-05T16:01:18.127Z,33.24
2022-08-05T16:03:50.865Z,33.26
2022-08-05T16:06:30.312Z,33.26
2022-08-05T16:08:58.381Z,33.24
2022-08-05T16:11:40.283Z,33.23
2022-08-05T16:14:17.280Z,33.15
2022-08-05T16:16:46.603Z,32.97
2022-08-05T16:19:25.334Z,32.79
2022-08-05T16:22:03.598Z,32.60
2022-08-05T16:24:41.872Z,32.44
2022-08-05T16:27:47.353Z,32.34
2022-08-05T16:30:23.384Z,32.36
2022-08-05T16:32:54.704Z,32.39
2022-08-05T16:35:28.101Z,32.36
2022-08-05T16:38:15.778Z,32.19
2022-08-05T16:40:55.709Z,32.04
2022-08-05T16:43:34.678Z,31.95
2022-08-05T16:46:12.803Z,31.89
2022-08-05T16:48:52.665Z,31.82
2022-08-05T16:51:20.822Z,31.75
2022-08-05T16:54:06.104Z,31.69
2022-08-05T16:56:41.432Z,31.59
2022-08-05T16:59:10.463Z,31.45
2022-08-05T17:01:54.673Z,31.36
2022-08-05T17:04:27.486Z,31.27
2022-08-05T17:07:01.805Z,31.19
2022-08-05T17:09:39.049Z,31.08
2022-08-05T17:12:22.486Z,30.94
2022-08-05T17:15:19.654Z,30.78
2022-08-05T17:17:54.548Z,30.61
2022-08-05T17:20:23.236Z,30.43
2022-08-05T17:22:55.573Z,30.27
2022-08-05T17:25:39.563Z,30.09
2022-08-05T17:28:09.339Z,29.88
2022-08-05T17:30:50.780Z,29.67
2022-08-05T17:33:20.439Z,29.46
2022-08-05T17:36:07.552Z,29.27
2022-08-05T17:38:36.235Z,29.04
2022-08-05T17:41:04.040Z,28.82
2022-08-05T17:43:50.329Z,28.61
2022-08-05T17:46:21.000Z,28.41
2022-08-05T17:48:48.946Z,28.24
2022-08-05T17:51:21.469Z,28.09
2022-08-05T17:53:50.760Z,27.95
2022-08-05T17:56:22.942Z,27.78
2022-08-05T17:58:56.380Z,27.61
2022-08-05T18:01:24.369Z,27.43
2022-08-05T18:04:04.605Z,27.25
2022-08-05T18:06:33.891Z,27.07
2022-08-05T18:09:03.762Z,26.91
2022-08-05T18:11:33.614Z,26.76
2022-08-05T18:14:04.246Z,26.60
2022-08-05T18:16:51.330Z,26.44
2022-08-05T18:19:23.005Z,26.27
2022-08-05T18:22:07.850Z,26.12
2022-08-05T18:24:39.618Z,25.98
2022-08-05T18:27:12.635Z,25.88
2022-08-05T18:29:53.589Z,25.78
2022-08-05T18:32:28.441Z,25.68
2022-08-05T18:34:58.053Z,25.58
2022-08-05T18:37:34.309Z,25.47
2022-08-05T18:40:34.545Z,25.37
2022-08-05T18:42:58.268Z,25.24
2022-08-05T18:45:41.326Z,25.11
2022-08-05T18:48:11.117Z,24.96
2022-08-05T18:51:01.697Z,24.85
2022-08-05T18:53:50.362Z,24.71
2022-08-05T18:56:21.908Z,24.60
2022-08-05T18:58:54.990Z,24.49
2022-08-05T19:01:33.489Z,24.57
2022-08-05T19:04:24.184Z,25.37
2022-08-05T19:06:53.589Z,26.04
2022-08-05T19:09:21.635Z,26.33
2022-08-05T19:11:59.927Z,25.95
2022-08-05T19:14:59.391Z,25.46
2022-08-05T19:17:19.176Z,25.08
2022-08-05T19:19:48.483Z,24.81
2022-08-05T19:22:17.195Z,24.55
2022-08-05T19:24:56.118Z,24.34
2022-08-05T19:27:27.875Z,24.32
2022-08-05T19:29:58.831Z,25.01
2022-08-05T19:32:27.878Z,25.60
2022-08-05T19:34:57.885Z,25.99
2022-08-05T19:37:47.274Z,26.11
2022-08-05T19:40:17.655Z,25.51
2022-08-05T19:43:04.988Z,24.97
2022-08-05T19:45:36.720Z,24.45
2022-08-05T19:48:06.274Z,24.00
2022-08-05T19:50:35.290Z,23.81
2022-08-05T19:53:09.511Z,24.40
2022-08-05T19:56:15.229Z,25.03
2022-08-05T19:58:29.120Z,25.47
2022-08-05T20:00:58.231Z,25.58
2022-08-05T20:03:27.666Z,25.10
2022-08-05T20:06:15.294Z,24.51
2022-08-05T20:08:47.481Z,24.10
2022-08-05T20:11:17.884Z,23.96
2022-08-05T20:13:59.069Z,24.50
2022-08-05T20:16:34.358Z,25.09
2022-08-05T20:19:02.337Z,25.45
2022-08-05T20:21:30.292Z,25.71
2022-08-05T20:23:58.989Z,25.74
2022-08-05T20:26:26.937Z,25.17
2022-08-05T20:28:56.904Z,24.56
2022-08-05T20:31:28.584Z,24.09
2022-08-05T20:34:12.293Z,23.72
2022-08-05T20:36:43.452Z,23.62
2022-08-05T20:39:13.579Z,24.21
2022-08-05T20:41:47.988Z,24.80
2022-08-05T20:44:29.401Z,25.16
2022-08-05T20:47:07.383Z,25.42
2022-08-05T20:49:39.442Z,25.40
2022-08-05T20:52:08.809Z,24.81
2022-08-05T20:54:43.479Z,24.23
2022-08-05T20:57:43.942Z,23.73
2022-08-05T21:00:41.176Z,23.57
2022-08-05T21:03:07.271Z,24.19
2022-08-05T21:05:54.761Z,24.67
2022-08-05T21:08:26.529Z,24.98
2022-08-05T21:11:10.194Z,25.17
2022-08-05T21:13:47.804Z,25.13
2022-08-05T21:16:29.525Z,24.44
2022-08-05T21:19:01.912Z,23.79
2022-08-05T21:21:39.685Z,23.33
2022-08-05T21:24:15.403Z,23.19
2022-08-05T21:26:50.555Z,23.74
2022-08-05T21:29:26.552Z,24.27
2022-08-05T21:32:01.961Z,24.58
2022-08-05T21:34:31.604Z,24.76
2022-08-05T21:37:00.892Z,24.75
2022-08-05T21:39:29.839Z,24.10
2022-08-05T21:42:01.887Z,23.45
2022-08-05T21:44:31.067Z,22.98
2022-08-05T21:47:00.255Z,22.62
2022-08-05T21:49:59.312Z,22.51
2022-08-05T21:52:28.012Z,23.10
2022-08-05T21:55:05.982Z,23.61
2022-08-05T21:57:35.762Z,23.96
2022-08-05T22:00:10.830Z,24.17
2022-08-05T22:02:42.405Z,24.32
2022-08-05T22:05:11.782Z,24.36
2022-08-05T22:07:58.667Z,24.31
2022-08-05T22:10:28.334Z,23.56
2022-08-05T22:12:57.807Z,22.92
2022-08-05T22:16:02.690Z,22.44
2022-08-05T22:18:15.124Z,22.33
2022-08-05T22:20:47.089Z,22.95
2022-08-05T22:24:02.452Z,23.46
2022-08-05T22:26:49.908Z,23.82
2022-08-05T22:29:26.501Z,24.06
2022-08-05T22:32:02.613Z,24.24
2022-08-05T22:34:32.514Z,24.20
2022-08-05T22:37:00.605Z,23.60
2022-08-05T22:39:33.933Z,22.95
2022-08-05T22:42:12.232Z,22.46
2022-08-05T22:44:42.510Z,22.30
2022-08-05T22:47:14.919Z,22.86
2022-08-05T22:50:20.196Z,23.38
2022-08-05T22:52:50.395Z,23.67
2022-08-05T22:55:21.379Z,23.82
2022-08-05T22:57:50.915Z,23.95
2022-08-05T23:00:20.886Z,23.96
2022-08-05T23:02:50.494Z,23.36
2022-08-05T23:05:18.641Z,22.71
2022-08-05T23:07:48.587Z,22.20
2022-08-05T23:10:23.691Z,21.96
2022-08-05T23:12:54.598Z,22.46
2022-08-05T23:15:28.944Z,22.94
2022-08-05T23:18:01.636Z,23.24
2022-08-05T23:20:33.353Z,23.43
2022-08-05T23:23:05.863Z,23.61
2022-08-05T23:25:53.362Z,23.56
2022-08-05T23:28:28.923Z,22.82
2022-08-05T23:31:07.042Z,22.16
2022-08-05T23:34:04.761Z,21.63
2022-08-05T23:36:39.965Z,21.51
2022-08-05T23:39:17.331Z,22.14
2022-08-05T23:41:52.342Z,22.65
2022-08-05T23:44:22.541Z,22.96
2022-08-05T23:46:53.537Z,23.17
2022-08-05T23:49:35.567Z,23.34
2022-08-05T23:52:25.108Z,23.31
2022-08-05T23:54:54.204Z,22.52
2022-08-05T23:57:22.477Z,21.88
